Time;durP1;ratioP1;P1;durP2;ratioP2;P2;SDS_P1;SDS_P2;PMS_P1;PMS_P2;Temp;Humidity;BMP_temperature;BMP_pressure;BME280_temperature;BME280_humidity;BME280_pressure;Samples;Min_cycle;Max_cycle;Signal;HPM_P1;HPM_P2
2022/07/14 00:01:23;;;;;;;3.85;0.95;;;;;;;22.88;32.81;100003.97;7738919;32;37834;-76
2022/07/14 00:05:39;;;;;;;3.22;1.00;;;;;;;22.97;32.84;100001.06;7738631;32;39294;-76
2022/07/14 00:09:56;;;;;;;0.75;0.70;;;;;;;22.77;33.61;99998.09;7739049;32;39909;-77
2022/07/14 00:14:12;;;;;;;2.95;1.20;;;;;;;22.78;33.32;99994.13;7738893;32;38100;-76
2022/07/14 00:18:28;;;;;;;1.27;1.10;;;;;;;22.71;32.99;99996.69;7739004;32;37934;-76
2022/07/14 00:22:44;;;;;;;8.50;1.27;;;;;;;22.84;32.76;100000.28;7738964;32;40142;-76
2022/07/14 00:27:00;;;;;;;2.33;0.90;;;;;;;22.63;33.27;100003.19;7738655;32;40779;-75
2022/07/14 00:31:16;;;;;;;2.67;1.20;;;;;;;22.74;32.49;100007.13;7738416;32;37912;-76
2022/07/14 00:35:32;;;;;;;1.25;1.00;;;;;;;22.57;33.20;100015.69;7738714;32;37769;-76
2022/07/14 00:39:54;;;;;;;3.87;1.12;;;;;;;22.37;33.94;100021.03;7738749;32;40017;-77
2022/07/14 00:44:10;;;;;;;1.60;1.02;;;;;;;22.28;34.11;100017.53;7738726;32;40184;-76
2022/07/14 00:48:27;;;;;;;2.00;1.20;;;;;;;22.28;34.04;100017.53;7738647;32;37921;-76
2022/07/14 00:52:45;;;;;;;3.83;0.93;;;;;;;22.16;34.25;100011.94;7738718;32;36791;-76
2022/07/14 00:57:01;;;;;;;1.17;0.90;;;;;;;22.17;34.34;100008.00;7738299;32;40394;-77
2022/07/14 01:01:18;;;;;;;4.60;1.33;;;;;;;22.40;33.80;100005.63;7738447;32;39922;-76
2022/07/14 01:05:34;;;;;;;3.60;1.10;;;;;;;21.98;34.96;100006.56;7749786;32;38027;-75
2022/07/14 01:09:50;;;;;;;1.10;1.00;;;;;;;21.93;35.21;100007.59;7749955;32;37048;-76
2022/07/14 01:14:06;;;;;;;2.15;1.30;;;;;;;22.11;34.79;100007.41;7738377;32;39362;-75
2022/07/14 01:18:22;;;;;;;2.90;1.10;;;;;;;22.16;35.00;100000.81;7749791;32;39905;-76
2022/07/14 01:22:38;;;;;;;8.85;1.20;;;;;;;22.15;35.36;100005.56;7738129;32;38687;-77
2022/07/14 01:26:55;;;;;;;2.10;1.35;;;;;;;22.12;35.52;100012.59;7738088;32;37699;-76
2022/07/14 01:31:11;;;;;;;1.83;1.00;;;;;;;22.16;35.76;99998.03;7738196;32;39978;-76
2022/07/14 01:35:27;;;;;;;6.55;1.23;;;;;;;22.11;35.73;99990.75;7737973;32;39908;-77
2022/07/14 01:39:43;;;;;;;2.90;1.40;;;;;;;21.98;36.44;99997.44;7738365;32;36932;-76
2022/07/14 01:44:00;;;;;;;1.20;1.10;;;;;;;21.90;36.72;99999.16;7737999;32;37853;-77
2022/07/14 01:48:16;;;;;;;1.83;1.20;;;;;;;22.05;36.46;100001.25;7737810;32;39377;-77
2022/07/14 01:52:32;;;;;;;2.70;1.30;;;;;;;21.91;37.05;99993.25;7737890;32;40413;-77
2022/07/14 01:56:48;;;;;;;3.55;1.65;;;;;;;21.84;37.23;99981.09;7737832;32;37932;-77
2022/07/14 02:05:46;;;;;;;4.70;1.10;;;;;;;21.85;38.22;99975.22;7737422;32;39362;-76
2022/07/14 02:14:39;;;;;;;1.55;1.05;;;;;;;21.69;37.99;99986.13;7737462;32;37655;-76
2022/07/14 02:18:56;;;;;;;1.55;1.20;;;;;;;21.69;37.65;99994.47;7737282;32;36831;-77
2022/07/14 02:23:12;;;;;;;1.10;1.00;;;;;;;21.58;37.88;99993.28;7737173;32;40025;-77
2022/07/14 02:27:28;;;;;;;1.83;1.00;;;;;;;21.52;37.74;99994.63;7736882;32;39882;-76
2022/07/14 02:31:45;;;;;;;4.20;1.30;;;;;;;21.45;37.59;99989.59;7736073;32;37945;-75
2022/07/14 02:36:01;;;;;;;1.37;1.17;;;;;;;21.50;37.20;99991.38;7736957;32;36830;-76
2022/07/14 02:40:17;;;;;;;3.67;1.20;;;;;;;21.49;37.09;99989.75;7736951;32;39966;-76
2022/07/14 02:44:33;;;;;;;2.45;1.10;;;;;;;21.44;36.77;99987.16;7736384;32;39851;-76
2022/07/14 02:48:50;;;;;;;2.42;1.20;;;;;;;21.32;37.09;100001.81;7748021;32;37586;-76
2022/07/14 02:53:06;;;;;;;2.85;1.00;;;;;;;21.38;36.84;100000.44;7736577;32;37994;-76
2022/07/14 02:57:22;;;;;;;2.25;1.10;;;;;;;21.42;36.68;100006.94;7736365;32;39439;-76
2022/07/14 03:01:38;;;;;;;1.58;1.20;;;;;;;21.35;37.35;100001.94;7736280;32;40809;-75
2022/07/14 03:05:54;;;;;;;4.37;1.40;;;;;;;21.16;38.31;99999.66;7736181;32;37983;-76
2022/07/14 03:10:10;;;;;;;6.22;1.23;;;;;;;21.01;38.97;100000.25;7735927;32;37825;-76
2022/07/14 03:14:33;;;;;;;1.87;1.15;;;;;;;21.20;38.48;100006.13;7735813;32;39418;-76
2022/07/14 03:18:50;;;;;;;2.50;1.15;;;;;;;21.50;37.83;100011.59;7735895;32;39860;-76
2022/07/14 03:23:06;;;;;;;3.42;1.35;;;;;;;21.32;38.53;100007.34;7735845;32;38030;-76
2022/07/14 03:27:22;;;;;;;1.45;1.20;;;;;;;21.26;39.39;100003.94;7735556;32;37895;-77
2022/07/14 03:31:38;;;;;;;4.28;1.48;;;;;;;21.46;38.89;100012.63;7735495;32;40187;-75
2022/07/14 03:35:54;;;;;;;1.67;1.48;;;;;;;21.52;39.09;100017.63;7735390;32;40882;-75
2022/07/14 03:40:11;;;;;;;1.30;1.20;;;;;;;21.68;38.76;100009.50;7734968;32;38767;-75
2022/07/14 03:44:27;;;;;;;3.50;1.55;;;;;;;21.76;38.23;100010.56;7739417;32;36994;-76
2022/07/14 03:48:43;;;;;;;3.08;1.30;;;;;;;21.98;38.03;100008.53;7750953;32;39159;-75
2022/07/14 03:52:59;;;;;;;4.05;1.20;;;;;;;21.87;38.88;100011.75;7739340;32;40540;-76
2022/07/14 03:57:15;;;;;;;5.07;1.33;;;;;;;21.49;39.81;100009.16;7739127;32;37695;-76
2022/07/14 04:01:31;;;;;;;1.35;1.10;;;;;;;21.22;42.00;100008.56;7739261;32;36974;-76
2022/07/14 04:05:48;;;;;;;4.32;1.30;;;;;;;21.30;41.28;100007.69;7739315;32;40156;-76
2022/07/14 04:10:05;;;;;;;1.40;1.30;;;;;;;21.22;41.68;100005.78;7738877;32;41064;-76
2022/07/14 04:14:21;;;;;;;5.90;1.27;;;;;;;21.10;42.96;100009.31;7738784;32;37950;-76
2022/07/14 04:18:37;;;;;;;3.58;1.35;;;;;;;20.96;43.71;100012.34;7739120;32;38016;-76
2022/07/14 04:22:53;;;;;;;2.22;1.30;;;;;;;21.03;43.48;100005.47;7738988;32;39138;-76
2022/07/14 04:27:09;;;;;;;3.78;1.48;;;;;;;21.12;43.58;100008.97;7738784;32;40691;-77
2022/07/14 04:31:25;;;;;;;4.05;1.52;;;;;;;21.13;44.13;100011.41;7738818;32;37743;-76
2022/07/14 04:35:44;;;;;;;15.23;2.30;;;;;;;21.38;43.12;100004.00;7738645;32;36737;-75
2022/07/14 04:40:00;;;;;;;4.95;1.70;;;;;;;21.58;42.41;100007.16;7738831;32;38257;-76
2022/07/14 04:44:16;;;;;;;3.55;1.25;;;;;;;21.83;41.32;99996.13;7738723;32;39473;-76
2022/07/14 04:52:01;;;;;;;5.78;1.45;;;;;;;22.03;42.12;100002.78;7738595;32;38819;-76
2022/07/14 04:53:08;;;;;;;9.38;1.95;;;;;;;22.21;40.78;100009.72;7738326;32;37031;-75
2022/07/14 04:57:24;;;;;;;6.65;1.60;;;;;;;22.09;42.74;100024.41;7738230;32;39361;-75
2022/07/14 05:01:47;;;;;;;;;;;;;;;22.18;42.28;100015.16;7738859;32;39885;-76
2022/07/14 05:06:03;;;;;;;14.38;1.95;;;;;;;22.16;40.37;100015.50;7738350;32;38347;-81
2022/07/14 05:10:19;;;;;;;6.30;1.98;;;;;;;22.51;39.88;100015.12;7749634;32;37814;-79
2022/07/14 05:14:36;;;;;;;4.37;1.80;;;;;;;22.73;40.46;100013.81;7738373;32;39291;-77
2022/07/14 05:18:51;;;;;;;8.43;1.83;;;;;;;22.91;40.10;100008.03;7738230;32;40762;-75
2022/07/14 05:23:08;;;;;;;5.28;1.60;;;;;;;23.16;39.81;100014.38;7738241;32;37932;-73
2022/07/14 05:27:24;;;;;;;8.60;1.65;;;;;;;23.26;39.64;100002.75;7737489;32;37048;-73
2022/07/14 05:31:40;;;;;;;8.18;2.00;;;;;;;23.59;39.56;100001.69;7737914;32;39437;-72
2022/07/14 05:35:56;;;;;;;12.23;1.83;;;;;;;23.99;38.65;100000.81;7737936;32;39954;-74
2022/07/14 05:40:12;;;;;;;6.70;1.75;;;;;;;24.30;38.89;100002.84;7737767;32;38075;-72
2022/07/14 05:44:28;;;;;;;4.47;1.27;;;;;;;24.72;37.00;99993.91;7731835;32;38159;-74
2022/07/14 05:48:44;;;;;;;2.53;1.23;;;;;;;25.02;36.70;99989.78;7710120;32;40124;-74
2022/07/14 05:53:00;;;;;;;2.92;1.30;;;;;;;25.17;37.51;99996.50;7709994;32;40782;-73
2022/07/14 05:57:16;;;;;;;10.38;1.50;;;;;;;25.40;36.46;100002.97;7709957;32;38789;-73
2022/07/14 06:01:33;;;;;;;3.45;1.40;;;;;;;25.84;35.58;99988.69;7716155;32;37674;-73
2022/07/14 06:05:50;;;;;;;2.17;1.20;;;;;;;26.02;34.20;99982.66;7718928;32;39317;-73
2022/07/14 06:10:11;;;;;;;9.90;1.40;;;;;;;26.09;33.86;99982.78;7731526;32;39910;-72
2022/07/14 06:14:27;;;;;;;7.45;1.60;;;;;;;26.50;32.84;99996.22;7735930;32;37529;-73
2022/07/14 06:18:43;;;;;;;11.65;1.85;;;;;;;26.24;34.75;99997.81;7737377;32;36696;-75
2022/07/14 06:22:59;;;;;;;3.17;1.35;;;;;;;26.34;34.18;99993.59;7737161;32;39855;-73
2022/07/14 06:27:15;;;;;;;2.05;1.33;;;;;;;26.35;33.61;99992.38;7736878;32;39667;-73
2022/07/14 06:31:34;;;;;;;1.37;1.10;;;;;;;26.54;31.94;99978.31;7736912;32;37881;-78
2022/07/14 06:35:50;;;;;;;2.58;1.30;;;;;;;25.65;33.50;99977.56;7737041;32;37015;-78
2022/07/14 06:40:21;;;;;;;2.00;1.50;;;;;;;26.38;32.62;99974.88;7736712;32;39335;-78
2022/07/14 06:44:37;;;;;;;1.77;1.40;;;;;;;26.61;31.26;99967.25;7736807;32;40559;-81
2022/07/14 06:48:54;;;;;;;2.35;1.20;;;;;;;26.58;31.51;99973.59;7736643;32;38423;-84
2022/07/14 06:53:10;;;;;;;3.30;1.40;;;;;;;27.14;29.78;99965.63;7736647;32;37849;-84
2022/07/14 06:57:27;;;;;;;2.75;1.30;;;;;;;27.35;28.41;99970.69;7736854;32;39264;-80
2022/07/14 07:01:43;;;;;;;2.53;1.45;;;;;;;27.69;29.26;99967.88;7736496;32;39964;-85
2022/07/14 07:10:40;;;;;;;2.00;1.35;;;;;;;28.23;28.18;99982.41;7736101;32;37162;-86
2022/07/14 07:14:57;;;;;;;6.45;1.33;;;;;;;28.01;28.44;99982.25;7737158;32;39311;-80
2022/07/14 07:19:13;;;;;;;3.97;1.20;;;;;;;27.81;28.55;99981.59;7739846;32;40717;-81
2022/07/14 07:23:32;;;;;;;5.03;1.35;;;;;;;27.58;28.65;99976.19;7739372;32;37746;-76
2022/07/14 07:27:48;;;;;;;1.48;1.17;;;;;;;27.59;29.85;99974.16;7739528;32;37131;-76
2022/07/14 07:32:05;;;;;;;7.62;1.45;;;;;;;27.63;29.32;99964.63;7739578;32;39605;-76
2022/07/14 07:36:21;;;;;;;2.40;1.10;;;;;;;27.44;30.29;99973.19;7739377;32;40852;-77
2022/07/14 07:40:37;;;;;;;9.18;1.50;;;;;;;27.55;30.39;99968.53;7737548;32;37654;-78
2022/07/14 07:44:55;;;;;;;5.32;1.62;;;;;;;27.73;30.13;99963.94;7739348;32;36689;-78
2022/07/14 07:49:14;;;;;;;1.98;1.23;;;;;;;27.68;30.46;99964.28;7739362;32;39379;-77
2022/07/14 07:53:30;;;;;;;4.75;1.42;;;;;;;27.60;30.48;99956.19;7727317;32;40809;-77
2022/07/14 07:57:46;;;;;;;4.37;1.50;;;;;;;27.76;29.35;99959.56;7711362;32;38795;-78
2022/07/14 08:02:02;;;;;;;2.35;1.40;;;;;;;28.67;28.81;99958.38;7724744;32;37121;-74
2022/07/14 08:06:18;;;;;;;4.32;1.40;;;;;;;28.73;28.52;99951.16;7735341;32;39955;-76
2022/07/14 08:10:52;;;;;;;6.30;1.20;;;;;;;28.85;28.11;99956.44;7728378;32;39585;-76
2022/07/14 08:15:09;;;;;;;4.62;1.58;;;;;;;28.55;29.07;99951.88;7738342;32;38555;-76
2022/07/14 08:19:26;;;;;;;4.47;1.50;;;;;;;28.66;29.07;99946.31;7738332;32;36723;-76
2022/07/14 08:23:45;;;;;;;5.40;1.20;;;;;;;28.97;28.49;99955.31;7738924;32;39992;-76
2022/07/14 08:28:01;;;;;;;2.35;1.25;;;;;;;28.37;29.11;99943.31;7737121;32;39872;-76
2022/07/14 08:32:17;;;;;;;2.60;1.40;;;;;;;28.88;28.47;99946.47;7735405;32;37493;-76
2022/07/14 08:36:34;;;;;;;8.30;1.20;;;;;;;28.56;29.22;99941.44;7735442;32;38046;-76
2022/07/14 08:40:50;;;;;;;3.60;1.23;;;;;;;29.62;27.41;99936.72;7735620;32;38959;-76
2022/07/14 08:45:08;;;;;;;2.17;1.42;;;;;;;29.95;25.68;99929.16;7749263;32;39464;-76
2022/07/14 08:49:24;;;;;;;7.78;1.30;;;;;;;29.39;26.79;99931.47;7738676;32;37977;-76
2022/07/14 08:54:01;;;;;;;1.20;1.02;;;;;;;29.94;25.82;99930.34;7737753;32;38450;-76
2022/07/14 08:58:17;;;;;;;3.62;1.37;;;;;;;29.87;25.62;99934.00;7737023;32;39414;-76
2022/07/14 09:02:33;;;;;;;4.95;1.30;;;;;;;29.76;25.70;99916.31;7738264;32;41240;-76
2022/07/14 09:07:05;;;;;;;2.37;1.20;;;;;;;29.69;25.89;99913.47;7736450;32;38434;-76
2022/07/14 09:11:22;;;;;;;3.62;1.40;;;;;;;29.83;24.87;99909.91;7736685;32;37537;-76
2022/07/14 09:15:44;;;;;;;2.72;1.37;;;;;;;30.37;24.64;99910.69;7736090;32;39342;-77
2022/07/14 09:20:11;;;;;;;4.78;1.60;;;;;;;30.41;24.29;99907.88;7734551;32;40553;-79
2022/07/14 09:24:27;;;;;;;3.25;0.98;;;;;;;30.73;24.45;99902.16;7736684;32;37693;-78
2022/07/14 09:28:47;;;;;;;3.72;1.40;;;;;;;30.68;24.76;99899.78;7735214;32;37608;-78
2022/07/14 09:33:04;;;;;;;5.93;1.40;;;;;;;30.99;23.75;99900.88;7731565;32;38992;-77
2022/07/14 09:37:21;;;;;;;7.57;1.37;;;;;;;31.02;23.03;99888.81;7734947;32;39888;-77
2022/07/14 09:41:53;;;;;;;4.40;1.12;;;;;;;31.64;22.62;99883.66;7745414;32;37654;-77
2022/07/14 09:46:09;;;;;;;9.50;1.37;;;;;;;31.66;22.58;99886.87;7738054;32;37775;-77
2022/07/14 09:50:36;;;;;;;1.10;0.95;;;;;;;32.14;21.83;99872.00;7737985;32;40087;-77
2022/07/14 09:54:52;;;;;;;5.70;1.37;;;;;;;32.10;21.33;99871.25;7737877;32;40788;-77
2022/07/14 09:59:08;;;;;;;2.85;1.12;;;;;;;32.08;20.50;99876.50;7737619;32;38735;-76
2022/07/14 10:03:27;;;;;;;5.35;1.20;;;;;;;32.23;20.09;99867.88;7737266;32;37970;-77
2022/07/14 10:07:43;;;;;;;6.95;1.40;;;;;;;31.85;21.35;99862.16;7736877;32;40160;-77
2022/07/14 10:12:01;;;;;;;6.05;1.40;;;;;;;32.15;20.47;99865.16;7737573;32;40681;-77
2022/07/14 10:16:18;;;;;;;1.77;1.12;;;;;;;32.50;20.82;99854.69;7748354;32;36954;-77
2022/07/14 10:20:35;;;;;;;4.20;1.33;;;;;;;32.48;20.77;99857.16;7732420;32;37840;-76
2022/07/14 10:24:52;;;;;;;4.95;1.15;;;;;;;32.40;21.72;99844.34;7736035;32;39961;-77
2022/07/14 10:29:08;;;;;;;2.37;1.00;;;;;;;32.30;20.54;99836.78;7713004;32;40773;-77
2022/07/14 10:33:40;;;;;;;1.48;0.90;;;;;;;32.78;19.06;99833.03;7736690;32;38790;-76
2022/07/14 10:38:26;;;;;;;2.93;1.10;;;;;;;32.71;19.45;99833.13;7736817;32;37040;-77
2022/07/14 10:42:50;;;;;;;5.15;1.10;;;;;;;33.35;18.55;99827.84;7736216;32;40186;-76
2022/07/14 10:47:18;;;;;;;6.75;1.20;;;;;;;33.83;17.67;99812.53;7747808;32;40918;-76
2022/07/14 10:51:46;;;;;;;2.10;1.10;;;;;;;34.57;17.37;99803.06;7738556;32;37819;-76
2022/07/14 10:56:02;;;;;;;9.38;1.55;;;;;;;34.25;17.58;99801.69;7750897;32;37099;-77
2022/07/14 11:00:43;;;;;;;1.60;0.90;;;;;;;33.78;17.46;99794.03;7714591;32;39403;-77
2022/07/14 11:05:08;;;;;;;1.15;0.85;;;;;;;33.78;16.97;99791.22;7726468;32;40614;-77
2022/07/14 11:09:31;;;;;;;4.57;1.00;;;;;;;33.85;17.36;99776.94;7729538;32;37937;-75
2022/07/14 11:14:06;;;;;;;1.00;0.90;;;;;;;34.08;16.10;99766.81;7738175;32;37788;-76
2022/07/14 11:18:35;;;;;;;4.85;0.80;;;;;;;34.62;16.10;99771.44;7734588;32;39323;-76
2022/07/14 11:23:15;;;;;;;1.92;0.85;;;;;;;35.02;15.10;99759.25;7713002;32;39948;-77
2022/07/14 11:27:49;;;;;;;1.33;0.80;;;;;;;35.12;14.94;99755.38;7710713;32;37647;-77
2022/07/14 11:32:25;;;;;;;3.30;0.90;;;;;;;35.12;14.59;99758.97;7708557;32;37070;-76
2022/07/14 11:37:04;;;;;;;5.68;0.95;;;;;;;35.31;14.55;99753.72;7719729;32;40058;-76
2022/07/14 11:41:53;;;;;;;1.37;0.88;;;;;;;34.79;15.55;99753.28;7710177;32;39945;-76
2022/07/14 11:46:09;;;;;;;2.85;0.65;;;;;;;35.53;13.73;99732.09;7712633;32;37556;-75
2022/07/14 11:50:26;;;;;;;2.62;1.02;;;;;;;34.48;15.49;99743.41;7712287;32;38208;-76
2022/07/14 11:54:43;;;;;;;4.03;0.90;;;;;;;34.13;15.67;99745.72;7712219;32;39426;-75
2022/07/14 11:59:07;;;;;;;1.65;0.80;;;;;;;33.98;15.83;99734.72;7712185;32;40066;-76
2022/07/14 12:03:23;;;;;;;0.73;0.73;;;;;;;34.11;16.08;99739.72;7711374;32;38191;-76
2022/07/14 12:07:51;;;;;;;3.33;0.80;;;;;;;35.10;14.34;99721.81;7712143;32;37026;-76
2022/07/14 12:12:07;;;;;;;6.07;0.95;;;;;;;34.99;14.73;99724.88;7723234;32;39306;-75
2022/07/14 12:16:23;;;;;;;0.60;0.60;;;;;;;35.82;13.39;99713.53;7711921;32;39878;-76
2022/07/14 12:20:45;;;;;;;1.92;0.70;;;;;;;36.02;12.92;99721.91;7711814;32;37578;-76
2022/07/14 12:25:01;;;;;;;5.00;0.70;;;;;;;35.68;13.42;99715.47;7719867;32;37803;-75
2022/07/14 12:29:17;;;;;;;2.87;0.80;;;;;;;35.82;12.90;99708.66;7723754;32;40157;-75
2022/07/14 12:33:39;;;;;;;1.58;0.68;;;;;;;35.51;13.18;99706.22;7724989;32;41291;-76
2022/07/14 12:37:55;;;;;;;1.35;0.93;;;;;;;35.14;13.68;99699.06;7725532;32;37892;-76
2022/07/14 12:42:30;;;;;;;5.25;0.80;;;;;;;35.61;12.98;99692.22;7723629;32;37010;-76
2022/07/14 12:47:06;;;;;;;2.92;0.90;;;;;;;36.35;12.92;99687.75;7728951;32;39319;-76
2022/07/14 12:51:35;;;;;;;0.65;0.60;;;;;;;35.82;12.93;99674.63;7711863;32;40139;-76
2022/07/14 12:55:59;;;;;;;3.15;0.80;;;;;;;35.91;13.37;99660.59;7711771;32;38526;-76
2022/07/14 13:00:17;;;;;;;4.60;0.90;;;;;;;36.87;12.16;99672.31;7711699;32;37928;-75
2022/07/14 13:04:40;;;;;;;8.57;0.90;;;;;;;36.47;12.22;99658.56;7711771;32;39260;-77
2022/07/14 13:08:56;;;;;;;1.62;0.70;;;;;;;36.19;12.30;99657.37;7711884;32;39949;-75
2022/07/14 13:13:30;;;;;;;4.03;0.60;;;;;;;36.05;12.75;99653.72;7709883;32;38750;-77
2022/07/14 13:17:59;;;;;;;0.60;0.60;;;;;;;36.08;13.25;99646.34;7722547;32;37021;-76
2022/07/14 13:22:16;;;;;;;1.62;0.73;;;;;;;36.15;12.85;99648.94;7705820;32;230597;-76
2022/07/14 13:26:32;;;;;;;0.95;0.90;;;;;;;35.67;12.56;99653.56;7709275;32;40844;-76
2022/07/14 13:30:48;;;;;;;1.25;0.80;;;;;;;35.80;12.20;99633.78;7708126;32;38503;-76
2022/07/14 13:35:05;;;;;;;2.85;0.98;;;;;;;36.17;13.44;99637.97;7709792;32;36759;-76
2022/07/14 13:39:22;;;;;;;5.45;0.77;;;;;;;36.70;12.45;99634.75;7710284;32;39293;-76
2022/07/14 13:43:43;;;;;;;2.47;0.93;;;;;;;36.82;12.98;99625.44;7711297;32;39959;-77
2022/07/14 13:47:59;;;;;;;2.95;1.00;;;;;;;36.94;12.21;99626.63;7711237;32;37778;-76
2022/07/14 13:52:15;;;;;;;0.70;0.70;;;;;;;37.42;12.56;99618.13;7711197;32;37060;-76
2022/07/14 13:56:31;;;;;;;7.90;1.00;;;;;;;36.82;11.27;99599.06;7722672;32;39979;-77
2022/07/14 14:00:47;;;;;;;1.33;0.90;;;;;;;37.33;12.84;99615.22;7711082;32;40803;-76
2022/07/14 14:05:03;;;;;;;2.90;1.00;;;;;;;37.23;12.24;99614.31;7710952;32;37982;-76
2022/07/14 14:09:20;;;;;;;4.75;1.10;;;;;;;36.85;11.80;99603.84;7710995;32;37011;-76
2022/07/14 14:13:37;;;;;;;1.90;1.02;;;;;;;37.18;11.78;99603.53;7710893;32;40244;-76
2022/07/14 14:17:53;;;;;;;4.82;0.98;;;;;;;37.14;12.38;99594.34;7721905;32;39738;-76
2022/07/14 14:22:09;;;;;;;1.35;0.93;;;;;;;36.94;12.66;99595.41;7710559;32;37672;-77
2022/07/14 14:26:26;;;;;;;4.68;0.98;;;;;;;37.28;13.33;99573.97;7709735;32;37050;-76
2022/07/14 14:30:42;;;;;;;1.77;0.88;;;;;;;36.95;12.95;99571.44;7710129;32;39206;-76
2022/07/14 14:34:58;;;;;;;1.52;0.90;;;;;;;37.18;12.98;99572.28;7709926;32;39912;-77
2022/07/14 14:39:14;;;;;;;11.12;1.02;;;;;;;36.60;12.46;99574.22;7709981;32;38641;-76
2022/07/14 14:43:30;;;;;;;3.33;1.00;;;;;;;36.60;12.42;99571.38;7710091;32;37874;-76
2022/07/14 14:47:46;;;;;;;2.05;0.80;;;;;;;36.52;12.23;99561.50;7710009;32;39467;-76
2022/07/14 14:52:02;;;;;;;1.45;0.88;;;;;;;36.56;12.65;99567.84;7721366;32;39971;-76
2022/07/14 14:56:18;;;;;;;1.52;0.73;;;;;;;36.28;13.56;99559.00;7709714;32;37870;-77
2022/07/14 15:00:35;;;;;;;2.22;0.77;;;;;;;36.70;12.45;99557.28;7709540;32;37884;-77
2022/07/14 15:04:55;;;;;;;4.07;1.12;;;;;;;37.26;12.52;99544.44;7709417;32;39378;-76
2022/07/14 15:09:11;;;;;;;1.73;1.10;;;;;;;37.08;12.34;99545.81;7709340;32;39865;-76
2022/07/14 15:13:27;;;;;;;6.28;0.90;;;;;;;37.69;11.70;99535.13;7709198;32;37802;-75
2022/07/14 15:17:43;;;;;;;0.70;0.70;;;;;;;37.49;11.53;99534.63;7709119;32;37727;-76
2022/07/14 15:21:59;;;;;;;5.65;0.85;;;;;;;37.61;11.38;99528.06;7709115;32;39291;-76
2022/07/14 15:26:15;;;;;;;2.50;0.77;;;;;;;38.05;10.83;99518.69;7709004;32;39991;-76
2022/07/14 15:30:31;;;;;;;4.28;0.95;;;;;;;37.91;10.33;99514.34;7708619;32;38235;-75
2022/07/14 15:34:47;;;;;;;1.17;0.80;;;;;;;36.84;11.86;99517.03;7708754;32;38325;-75
2022/07/14 15:43:38;;;;;;;2.35;0.57;;;;;;;36.63;11.42;99499.44;7712618;32;40882;-76
2022/07/14 15:47:55;;;;;;;1.52;0.60;;;;;;;36.67;11.76;99493.69;7712306;32;38023;-76
2022/07/14 15:52:11;;;;;;;0.62;0.60;;;;;;;37.10;11.50;99491.37;7712355;32;37214;-76
2022/07/14 15:56:34;;;;;;;1.67;0.62;;;;;;;37.10;11.75;99497.87;7712495;32;39545;-76
2022/07/14 16:00:51;;;;;;;0.80;0.60;;;;;;;36.59;12.04;99483.81;7712209;32;40014;-76
2022/07/14 16:05:08;;;;;;;0.77;0.68;;;;;;;36.66;11.70;99473.00;7712239;32;37869;-77
2022/07/14 16:09:24;;;;;;;1.92;0.70;;;;;;;36.64;11.67;99461.31;7712160;32;37167;-75
2022/07/14 16:13:40;;;;;;;3.12;0.65;;;;;;;36.33;11.85;99469.69;7712184;32;40185;-76
2022/07/14 16:17:58;;;;;;;4.32;0.77;;;;;;;35.59;13.10;99457.38;7727534;32;41008;-75
2022/07/14 16:22:16;;;;;;;0.57;0.57;;;;;;;36.02;12.73;99458.91;7738270;32;37055;-76
2022/07/14 16:26:34;;;;;;;0.47;0.47;;;;;;;36.06;12.62;99444.59;7737786;32;36025;-76
2022/07/14 16:30:50;;;;;;;1.05;0.65;;;;;;;35.49;13.06;99445.13;7737667;32;39430;-75
2022/07/14 16:35:08;;;;;;;4.22;0.90;;;;;;;34.94;13.19;99433.75;7738600;32;40149;-76
2022/07/14 16:39:24;;;;;;;4.18;0.70;;;;;;;35.42;13.35;99436.06;7737598;32;38017;-75
2022/07/14 16:43:40;;;;;;;1.37;0.70;;;;;;;35.28;13.74;99432.41;7738611;32;37828;-76
2022/07/14 16:47:56;;;;;;;3.33;0.88;;;;;;;35.57;13.31;99428.72;7737154;32;40119;-76
2022/07/14 16:52:12;;;;;;;3.05;0.77;;;;;;;35.29;13.62;99427.53;7738131;32;40844;-75
2022/07/14 16:56:35;;;;;;;6.37;0.82;;;;;;;35.08;13.12;99417.59;7738219;32;38621;-76
2022/07/14 17:00:51;;;;;;;2.15;0.80;;;;;;;35.11;13.79;99411.81;7737706;32;37894;-76
2022/07/14 17:09:43;;;;;;;2.85;0.70;;;;;;;35.41;13.69;99408.94;7747361;32;39111;-77
2022/07/14 17:14:01;;;;;;;1.70;1.05;;;;;;;35.56;13.01;99406.47;7738107;32;37599;-76
2022/07/14 17:18:18;;;;;;;1.20;0.70;;;;;;;35.24;13.60;99400.56;7737442;32;36137;-77
2022/07/14 17:22:34;;;;;;;2.72;0.55;;;;;;;35.09;13.54;99397.31;7737909;32;39463;-76
2022/07/14 17:26:50;;;;;;;3.17;0.70;;;;;;;35.04;13.78;99392.22;7737715;32;39972;-77
2022/07/14 17:31:08;;;;;;;2.17;0.70;;;;;;;35.13;13.58;99389.53;7737396;32;37877;-76
2022/07/14 17:35:24;;;;;;;2.50;0.80;;;;;;;35.16;13.49;99385.78;7738009;32;37910;-76
2022/07/14 17:39:40;;;;;;;2.55;0.77;;;;;;;35.05;13.80;99385.31;7736987;32;40041;-77
2022/07/14 17:43:56;;;;;;;1.33;0.90;;;;;;;34.99;13.83;99381.44;7737722;32;40024;-77
2022/07/14 17:48:12;;;;;;;2.40;0.55;;;;;;;34.84;14.05;99381.06;7737356;32;38162;-75
2022/07/14 17:52:28;;;;;;;4.68;1.02;;;;;;;34.53;14.87;99386.34;7737122;32;37183;-76
2022/07/14 17:56:45;;;;;;;3.47;1.10;;;;;;;33.78;16.07;99387.00;7737618;32;39315;-76
2022/07/14 18:01:01;;;;;;;1.20;0.80;;;;;;;32.83;17.45;99395.06;7735971;32;40743;-76
2022/07/14 18:05:17;;;;;;;1.23;0.65;;;;;;;32.86;17.08;99388.56;7737534;32;38508;-76
2022/07/14 18:09:33;;;;;;;2.28;0.90;;;;;;;32.90;17.49;99385.66;7737035;32;36728;-76
2022/07/14 18:13:49;;;;;;;5.32;1.15;;;;;;;32.52;17.79;99389.56;7737049;32;39020;-76
2022/07/14 18:18:05;;;;;;;3.72;1.27;;;;;;;32.10;18.05;99391.13;7737286;32;39652;-76
2022/07/14 18:22:22;;;;;;;3.40;1.33;;;;;;;32.37;17.92;99388.25;7735776;32;37843;-75
2022/07/14 18:26:40;;;;;;;4.70;1.30;;;;;;;32.23;18.19;99397.75;7737257;32;37058;-77
2022/07/14 18:30:57;;;;;;;5.40;1.17;;;;;;;32.43;18.03;99386.53;7737262;32;39255;-75
2022/07/14 18:35:13;;;;;;;2.67;1.10;;;;;;;32.28;18.31;99379.56;7737065;32;41222;-76
2022/07/14 18:39:29;;;;;;;0.70;0.70;;;;;;;32.61;17.81;99385.44;7735510;32;37672;-76
2022/07/14 18:43:53;;;;;;;7.72;1.23;;;;;;;32.45;17.95;99384.06;7732977;32;37191;-76
2022/07/14 18:48:10;;;;;;;2.10;1.30;;;;;;;31.97;18.39;99399.37;7730714;32;39078;-77
2022/07/14 18:52:26;;;;;;;1.52;0.90;;;;;;;32.11;18.56;99390.69;7719410;32;39903;-77
2022/07/14 18:56:48;;;;;;;4.40;2.00;;;;;;;32.11;18.54;99387.88;7721059;32;38629;-78
2022/07/14 19:01:05;;;;;;;5.15;1.87;;;;;;;32.19;18.57;99394.22;7734673;32;37391;-77
2022/07/14 19:05:21;;;;;;;3.62;1.62;;;;;;;32.07;19.08;99398.44;7736127;32;39418;-76
2022/07/14 19:09:37;;;;;;;5.35;1.60;;;;;;;31.90;19.43;99407.94;7726730;32;40684;-79
2022/07/14 19:13:53;;;;;;;5.10;1.40;;;;;;;31.90;19.65;99407.94;7712602;32;37680;-80
2022/07/14 19:18:10;;;;;;;1.58;0.93;;;;;;;31.75;19.32;99415.81;7713039;32;37673;-77
2022/07/14 19:22:26;;;;;;;1.02;0.93;;;;;;;31.57;19.75;99421.72;7712815;32;39270;-78
2022/07/14 19:26:43;;;;;;;2.10;1.40;;;;;;;31.50;19.81;99421.81;7712784;32;40846;-77
2022/07/14 19:30:59;;;;;;;2.05;1.00;;;;;;;31.50;19.81;99424.66;7730569;32;38692;-77
2022/07/14 19:35:15;;;;;;;2.47;1.00;;;;;;;31.22;20.46;99420.97;7739674;32;36869;-76
2022/07/14 19:39:32;;;;;;;2.58;1.02;;;;;;;30.97;20.51;99427.66;7750995;32;39097;-77
2022/07/14 19:43:48;;;;;;;4.37;1.48;;;;;;;30.85;20.48;99436.63;7739473;32;40509;-77
2022/07/14 19:48:04;;;;;;;2.53;1.10;;;;;;;30.68;20.80;99430.78;7717861;32;37863;-76
2022/07/14 19:52:20;;;;;;;2.37;0.98;;;;;;;30.47;21.07;99425.34;7712670;32;37868;-77
2022/07/14 19:56:38;;;;;;;2.78;1.10;;;;;;;30.66;21.13;99426.78;7733179;32;40077;-76
2022/07/14 20:00:54;;;;;;;1.45;0.98;;;;;;;30.59;20.97;99422.03;7739199;32;40761;-77
2022/07/14 20:05:32;;;;;;;2.20;0.90;;;;;;;30.66;20.95;99426.78;7732206;32;39148;-76
2022/07/14 20:09:49;;;;;;;1.98;1.00;;;;;;;30.48;21.74;99426.97;7739169;32;38366;-77
2022/07/14 20:14:05;;;;;;;6.75;0.90;;;;;;;30.43;21.93;99414.16;7739087;32;40000;-77
2022/07/14 20:18:21;;;;;;;1.90;1.12;;;;;;;30.18;22.67;99407.91;7739023;32;39969;-77
2022/07/14 20:22:37;;;;;;;4.18;1.25;;;;;;;30.15;22.05;99409.56;7718448;32;38004;-77
2022/07/14 20:26:54;;;;;;;2.62;0.98;;;;;;;30.17;22.55;99407.13;7716335;32;38272;-77
2022/07/14 20:35:45;;;;;;;1.00;0.90;;;;;;;30.00;22.72;99403.25;7738693;32;40038;-77
2022/07/14 20:40:01;;;;;;;1.45;1.33;;;;;;;29.70;22.69;99395.41;7736077;32;38597;-77